KDTA

Delta Municipal Airport

Delta, Utah, USA
METAR KDTA 172055Z AUTO 18006KT 10SM CLR 10/M09 A3008 RMK AO1
Observed Flight Rules
Feb-17 @ 20:55 UTC (35 minutes ago) Visual Flight Rules
Wind Visibility Clouds
180° at 6 knots 10 miles
  • Clear skies
Temperatures Readings
Current 10°C / 50°F
Dewpoint -9°C / 16°F
Humidity 25%
Altimeter 30.08" Hg
Pressure 1019 hPa
Elevation 1402
METAR KDTA 172055Z AUTO 18006KT 10SM CLR 10/M09 A3008 RMK AO1
Observed Flight Rules
Feb-17 @ 20:55 UTC
(35 minutes ago)
VFR
Wind Visibility
180° at 6 knots 10 miles
Clouds
  • Clear skies
Temperature Dewpoint
10°C / 50°F -9°C / 16°F
Humidity Altimeter Pressure
25% 30.08" Hg 1019 hPa